sensor_id;sensor_type;location;lat;lon;timestamp;P1;durP1;ratioP1;P2;durP2;ratioP2
35648;SDS011;21768;48.562;13.414;2022-10-16T00:00:16;11.38;;;4.60;;
35648;SDS011;21768;48.562;13.414;2022-10-16T00:02:42;8.00;;;4.78;;
35648;SDS011;21768;48.562;13.414;2022-10-16T00:05:07;8.55;;;4.35;;
35648;SDS011;21768;48.562;13.414;2022-10-16T00:07:33;28.48;;;5.35;;
35648;SDS011;21768;48.562;13.414;2022-10-16T00:09:58;17.75;;;6.30;;
35648;SDS011;21768;48.562;13.414;2022-10-16T00:12:23;16.50;;;5.45;;
35648;SDS011;21768;48.562;13.414;2022-10-16T00:14:48;12.15;;;4.70;;
35648;SDS011;21768;48.562;13.414;2022-10-16T00:17:14;9.88;;;4.50;;
35648;SDS011;21768;48.562;13.414;2022-10-16T00:19:39;11.15;;;5.00;;
35648;SDS011;21768;48.562;13.414;2022-10-16T00:22:05;18.52;;;4.93;;
35648;SDS011;21768;48.562;13.414;2022-10-16T00:24:30;11.88;;;5.10;;
35648;SDS011;21768;48.562;13.414;2022-10-16T00:26:55;10.15;;;5.25;;
35648;SDS011;21768;48.562;13.414;2022-10-16T00:29:21;9.68;;;5.20;;
35648;SDS011;21768;48.562;13.414;2022-10-16T00:31:46;19.13;;;4.93;;
35648;SDS011;21768;48.562;13.414;2022-10-16T00:34:11;8.95;;;4.53;;
35648;SDS011;21768;48.562;13.414;2022-10-16T00:36:37;7.93;;;5.07;;
35648;SDS011;21768;48.562;13.414;2022-10-16T00:39:02;8.88;;;4.63;;
35648;SDS011;21768;48.562;13.414;2022-10-16T00:41:28;12.82;;;4.75;;
35648;SDS011;21768;48.562;13.414;2022-10-16T00:43:58;10.73;;;4.22;;
35648;SDS011;21768;48.562;13.414;2022-10-16T00:49:09;16.17;;;5.00;;
35648;SDS011;21768;48.562;13.414;2022-10-16T00:51:40;13.60;;;4.97;;
35648;SDS011;21768;48.562;13.414;2022-10-16T00:54:09;10.30;;;4.45;;
35648;SDS011;21768;48.562;13.414;2022-10-16T00:56:38;10.45;;;4.80;;
35648;SDS011;21768;48.562;13.414;2022-10-16T00:59:05;9.43;;;4.68;;
35648;SDS011;21768;48.562;13.414;2022-10-16T01:01:36;10.80;;;4.70;;
35648;SDS011;21768;48.562;13.414;2022-10-16T01:04:02;11.45;;;4.50;;
35648;SDS011;21768;48.562;13.414;2022-10-16T01:06:40;18.73;;;4.95;;
35648;SDS011;21768;48.562;13.414;2022-10-16T01:17:43;9.60;;;4.90;;
35648;SDS011;21768;48.562;13.414;2022-10-16T01:20:17;15.48;;;4.95;;
35648;SDS011;21768;48.562;13.414;2022-10-16T01:23:06;17.00;;;5.53;;
35648;SDS011;21768;48.562;13.414;2022-10-16T01:28:21;98.03;;;5.82;;
35648;SDS011;21768;48.562;13.414;2022-10-16T01:30:53;91.13;;;5.47;;
35648;SDS011;21768;48.562;13.414;2022-10-16T01:33:24;144.90;;;5.90;;
35648;SDS011;21768;48.562;13.414;2022-10-16T01:36:03;156.27;;;6.22;;
35648;SDS011;21768;48.562;13.414;2022-10-16T01:38:36;66.60;;;5.22;;
35648;SDS011;21768;48.562;13.414;2022-10-16T01:41:10;104.63;;;5.53;;
35648;SDS011;21768;48.562;13.414;2022-10-16T01:43:46;115.93;;;5.47;;
35648;SDS011;21768;48.562;13.414;2022-10-16T01:46:18;139.43;;;5.72;;
35648;SDS011;21768;48.562;13.414;2022-10-16T01:48:47;80.22;;;5.50;;
35648;SDS011;21768;48.562;13.414;2022-10-16T01:51:14;56.25;;;4.13;;
35648;SDS011;21768;48.562;13.414;2022-10-16T01:53:43;65.55;;;4.72;;
35648;SDS011;21768;48.562;13.414;2022-10-16T01:56:13;65.97;;;4.97;;
35648;SDS011;21768;48.562;13.414;2022-10-16T01:58:42;98.40;;;5.00;;
35648;SDS011;21768;48.562;13.414;2022-10-16T02:01:20;97.82;;;4.68;;
35648;SDS011;21768;48.562;13.414;2022-10-16T02:03:48;22.25;;;4.10;;
35648;SDS011;21768;48.562;13.414;2022-10-16T02:06:17;38.45;;;4.00;;
35648;SDS011;21768;48.562;13.414;2022-10-16T02:08:43;32.85;;;4.45;;
35648;SDS011;21768;48.562;13.414;2022-10-16T02:11:09;14.93;;;3.72;;
35648;SDS011;21768;48.562;13.414;2022-10-16T02:13:45;5.93;;;3.08;;
35648;SDS011;21768;48.562;13.414;2022-10-16T02:16:13;20.38;;;3.45;;
35648;SDS011;21768;48.562;13.414;2022-10-16T02:18:40;61.85;;;4.32;;
35648;SDS011;21768;48.562;13.414;2022-10-16T02:21:19;40.20;;;3.45;;
35648;SDS011;21768;48.562;13.414;2022-10-16T02:29:20;33.75;;;3.75;;
35648;SDS011;21768;48.562;13.414;2022-10-16T02:31:50;62.65;;;4.07;;
35648;SDS011;21768;48.562;13.414;2022-10-16T02:34:19;121.65;;;4.78;;
35648;SDS011;21768;48.562;13.414;2022-10-16T02:36:48;136.05;;;4.95;;
35648;SDS011;21768;48.562;13.414;2022-10-16T02:39:15;60.03;;;3.92;;
35648;SDS011;21768;48.562;13.414;2022-10-16T02:41:43;39.63;;;3.45;;
35648;SDS011;21768;48.562;13.414;2022-10-16T02:44:08;51.35;;;3.63;;
35648;SDS011;21768;48.562;13.414;2022-10-16T02:46:34;37.03;;;3.25;;
35648;SDS011;21768;48.562;13.414;2022-10-16T02:48:59;39.35;;;2.67;;
35648;SDS011;21768;48.562;13.414;2022-10-16T02:51:24;13.18;;;2.42;;
35648;SDS011;21768;48.562;13.414;2022-10-16T02:53:50;18.85;;;2.65;;
35648;SDS011;21768;48.562;13.414;2022-10-16T02:56:15;18.67;;;2.40;;
35648;SDS011;21768;48.562;13.414;2022-10-16T02:58:40;9.20;;;2.20;;
35648;SDS011;21768;48.562;13.414;2022-10-16T03:01:06;16.48;;;2.30;;
35648;SDS011;21768;48.562;13.414;2022-10-16T03:03:31;40.00;;;3.47;;
35648;SDS011;21768;48.562;13.414;2022-10-16T03:05:56;9.82;;;2.72;;
35648;SDS011;21768;48.562;13.414;2022-10-16T03:08:22;93.70;;;3.90;;
35648;SDS011;21768;48.562;13.414;2022-10-16T03:10:50;79.00;;;3.47;;
35648;SDS011;21768;48.562;13.414;2022-10-16T03:13:16;73.90;;;3.65;;
35648;SDS011;21768;48.562;13.414;2022-10-16T03:15:43;87.50;;;4.00;;
35648;SDS011;21768;48.562;13.414;2022-10-16T03:18:09;103.15;;;4.22;;
35648;SDS011;21768;48.562;13.414;2022-10-16T03:20:34;117.40;;;3.88;;
35648;SDS011;21768;48.562;13.414;2022-10-16T03:23:00;125.95;;;3.75;;
35648;SDS011;21768;48.562;13.414;2022-10-16T03:25:25;67.68;;;3.70;;
35648;SDS011;21768;48.562;13.414;2022-10-16T03:27:50;60.83;;;3.55;;
35648;SDS011;21768;48.562;13.414;2022-10-16T03:30:16;138.23;;;31.63;;
35648;SDS011;21768;48.562;13.414;2022-10-16T03:32:43;75.63;;;7.40;;
35648;SDS011;21768;48.562;13.414;2022-10-16T03:35:09;30.45;;;3.30;;
35648;SDS011;21768;48.562;13.414;2022-10-16T03:37:34;39.63;;;3.30;;
35648;SDS011;21768;48.562;13.414;2022-10-16T03:40:00;59.22;;;3.75;;
35648;SDS011;21768;48.562;13.414;2022-10-16T03:42:25;17.42;;;2.95;;
35648;SDS011;21768;48.562;13.414;2022-10-16T03:44:51;8.45;;;2.50;;
35648;SDS011;21768;48.562;13.414;2022-10-16T03:47:16;69.47;;;4.20;;
35648;SDS011;21768;48.562;13.414;2022-10-16T03:49:45;49.33;;;4.78;;
35648;SDS011;21768;48.562;13.414;2022-10-16T03:52:10;116.57;;;8.40;;
35648;SDS011;21768;48.562;13.414;2022-10-16T03:54:36;44.80;;;6.10;;
35648;SDS011;21768;48.562;13.414;2022-10-16T03:57:01;45.63;;;5.70;;
35648;SDS011;21768;48.562;13.414;2022-10-16T03:59:27;20.20;;;4.15;;
35648;SDS011;21768;48.562;13.414;2022-10-16T04:01:52;22.83;;;3.58;;
35648;SDS011;21768;48.562;13.414;2022-10-16T04:04:17;19.40;;;3.72;;
35648;SDS011;21768;48.562;13.414;2022-10-16T04:06:43;36.97;;;3.60;;
35648;SDS011;21768;48.562;13.414;2022-10-16T04:09:08;100.70;;;4.30;;
35648;SDS011;21768;48.562;13.414;2022-10-16T04:11:33;62.00;;;4.07;;
35648;SDS011;21768;48.562;13.414;2022-10-16T04:13:59;79.45;;;4.15;;
35648;SDS011;21768;48.562;13.414;2022-10-16T04:16:24;106.13;;;4.30;;
35648;SDS011;21768;48.562;13.414;2022-10-16T04:18:50;47.80;;;3.72;;
35648;SDS011;21768;48.562;13.414;2022-10-16T04:21:15;49.30;;;3.83;;
35648;SDS011;21768;48.562;13.414;2022-10-16T04:23:41;45.88;;;4.15;;
35648;SDS011;21768;48.562;13.414;2022-10-16T04:26:07;42.95;;;4.18;;
35648;SDS011;21768;48.562;13.414;2022-10-16T04:28:32;59.58;;;3.60;;
35648;SDS011;21768;48.562;13.414;2022-10-16T04:30:58;64.90;;;4.35;;
35648;SDS011;21768;48.562;13.414;2022-10-16T04:33:23;56.70;;;4.57;;
35648;SDS011;21768;48.562;13.414;2022-10-16T04:35:48;51.33;;;4.05;;
35648;SDS011;21768;48.562;13.414;2022-10-16T04:38:20;33.33;;;3.97;;
35648;SDS011;21768;48.562;13.414;2022-10-16T04:40:45;29.63;;;3.58;;
35648;SDS011;21768;48.562;13.414;2022-10-16T04:43:11;42.20;;;3.97;;
35648;SDS011;21768;48.562;13.414;2022-10-16T04:45:36;31.52;;;3.55;;
35648;SDS011;21768;48.562;13.414;2022-10-16T04:48:02;13.23;;;3.92;;
35648;SDS011;21768;48.562;13.414;2022-10-16T04:50:27;12.57;;;3.53;;
35648;SDS011;21768;48.562;13.414;2022-10-16T04:52:53;12.38;;;3.75;;
35648;SDS011;21768;48.562;13.414;2022-10-16T04:55:18;12.68;;;3.45;;
35648;SDS011;21768;48.562;13.414;2022-10-16T04:57:43;18.98;;;3.67;;
35648;SDS011;21768;48.562;13.414;2022-10-16T05:00:09;11.05;;;3.92;;
35648;SDS011;21768;48.562;13.414;2022-10-16T05:02:35;14.50;;;3.38;;
35648;SDS011;21768;48.562;13.414;2022-10-16T05:05:00;7.03;;;3.30;;
35648;SDS011;21768;48.562;13.414;2022-10-16T05:07:25;16.33;;;3.40;;
35648;SDS011;21768;48.562;13.414;2022-10-16T05:09:51;5.00;;;3.30;;
35648;SDS011;21768;48.562;13.414;2022-10-16T05:12:16;8.57;;;3.60;;
35648;SDS011;21768;48.562;13.414;2022-10-16T05:14:42;22.88;;;3.45;;
35648;SDS011;21768;48.562;13.414;2022-10-16T05:17:07;38.03;;;4.15;;
35648;SDS011;21768;48.562;13.414;2022-10-16T05:19:33;37.85;;;4.20;;
35648;SDS011;21768;48.562;13.414;2022-10-16T05:21:58;82.18;;;4.18;;
35648;SDS011;21768;48.562;13.414;2022-10-16T05:24:24;75.15;;;3.85;;
35648;SDS011;21768;48.562;13.414;2022-10-16T05:26:49;99.70;;;3.90;;
35648;SDS011;21768;48.562;13.414;2022-10-16T05:29:15;59.80;;;3.42;;
35648;SDS011;21768;48.562;13.414;2022-10-16T05:31:40;77.25;;;4.00;;
35648;SDS011;21768;48.562;13.414;2022-10-16T05:34:06;73.68;;;3.65;;
35648;SDS011;21768;48.562;13.414;2022-10-16T05:36:31;99.70;;;4.25;;
35648;SDS011;21768;48.562;13.414;2022-10-16T05:38:57;213.15;;;5.97;;
35648;SDS011;21768;48.562;13.414;2022-10-16T05:41:22;185.70;;;5.75;;
35648;SDS011;21768;48.562;13.414;2022-10-16T05:43:50;140.55;;;5.80;;
35648;SDS011;21768;48.562;13.414;2022-10-16T05:46:16;89.65;;;4.38;;
35648;SDS011;21768;48.562;13.414;2022-10-16T05:48:42;158.15;;;5.60;;
35648;SDS011;21768;48.562;13.414;2022-10-16T05:51:09;171.90;;;7.47;;
35648;SDS011;21768;48.562;13.414;2022-10-16T05:53:37;140.20;;;5.63;;
35648;SDS011;21768;48.562;13.414;2022-10-16T05:56:03;89.97;;;4.63;;
35648;SDS011;21768;48.562;13.414;2022-10-16T05:58:31;127.57;;;5.30;;
35648;SDS011;21768;48.562;13.414;2022-10-16T06:01:02;214.10;;;6.63;;
35648;SDS011;21768;48.562;13.414;2022-10-16T06:03:32;105.18;;;5.35;;
35648;SDS011;21768;48.562;13.414;2022-10-16T06:05:58;124.55;;;5.55;;
35648;SDS011;21768;48.562;13.414;2022-10-16T06:08:24;88.20;;;4.88;;
35648;SDS011;21768;48.562;13.414;2022-10-16T06:10:59;68.20;;;4.68;;
35648;SDS011;21768;48.562;13.414;2022-10-16T06:13:26;73.13;;;4.40;;
35648;SDS011;21768;48.562;13.414;2022-10-16T06:15:51;85.45;;;4.30;;
35648;SDS011;21768;48.562;13.414;2022-10-16T06:18:17;62.05;;;3.97;;
35648;SDS011;21768;48.562;13.414;2022-10-16T06:20:42;95.55;;;4.53;;
35648;SDS011;21768;48.562;13.414;2022-10-16T06:23:07;109.55;;;4.78;;
35648;SDS011;21768;48.562;13.414;2022-10-16T06:25:33;144.75;;;4.93;;
35648;SDS011;21768;48.562;13.414;2022-10-16T06:27:58;92.70;;;4.55;;
35648;SDS011;21768;48.562;13.414;2022-10-16T06:30:23;105.20;;;4.57;;
35648;SDS011;21768;48.562;13.414;2022-10-16T06:32:49;119.78;;;4.80;;
35648;SDS011;21768;48.562;13.414;2022-10-16T06:35:14;81.13;;;4.43;;
35648;SDS011;21768;48.562;13.414;2022-10-16T06:37:40;108.13;;;4.97;;
35648;SDS011;21768;48.562;13.414;2022-10-16T06:40:05;92.10;;;4.30;;
35648;SDS011;21768;48.562;13.414;2022-10-16T06:42:31;130.25;;;4.43;;
35648;SDS011;21768;48.562;13.414;2022-10-16T06:44:56;56.35;;;4.47;;
35648;SDS011;21768;48.562;13.414;2022-10-16T06:47:22;103.60;;;4.78;;
35648;SDS011;21768;48.562;13.414;2022-10-16T06:49:47;100.97;;;4.72;;
35648;SDS011;21768;48.562;13.414;2022-10-16T06:52:12;64.93;;;4.32;;
35648;SDS011;21768;48.562;13.414;2022-10-16T06:54:38;32.40;;;4.53;;
35648;SDS011;21768;48.562;13.414;2022-10-16T06:57:03;52.88;;;4.43;;
35648;SDS011;21768;48.562;13.414;2022-10-16T06:59:28;43.30;;;4.53;;
35648;SDS011;21768;48.562;13.414;2022-10-16T07:01:54;45.20;;;4.85;;
35648;SDS011;21768;48.562;13.414;2022-10-16T07:04:19;40.20;;;5.15;;
35648;SDS011;21768;48.562;13.414;2022-10-16T07:06:45;26.20;;;4.80;;
35648;SDS011;21768;48.562;13.414;2022-10-16T07:09:10;10.75;;;5.68;;
35648;SDS011;21768;48.562;13.414;2022-10-16T07:11:37;32.55;;;6.10;;
35648;SDS011;21768;48.562;13.414;2022-10-16T07:14:04;18.02;;;6.32;;
35648;SDS011;21768;48.562;13.414;2022-10-16T07:16:30;21.30;;;7.05;;
35648;SDS011;21768;48.562;13.414;2022-10-16T07:18:57;20.52;;;6.93;;
35648;SDS011;21768;48.562;13.414;2022-10-16T07:21:24;30.80;;;8.07;;
35648;SDS011;21768;48.562;13.414;2022-10-16T07:23:51;33.10;;;8.85;;
35648;SDS011;21768;48.562;13.414;2022-10-16T07:26:26;15.65;;;7.72;;
35648;SDS011;21768;48.562;13.414;2022-10-16T07:28:53;14.48;;;7.93;;
35648;SDS011;21768;48.562;13.414;2022-10-16T07:31:21;13.10;;;6.40;;
35648;SDS011;21768;48.562;13.414;2022-10-16T07:33:47;15.02;;;7.18;;
35648;SDS011;21768;48.562;13.414;2022-10-16T07:36:14;14.45;;;7.22;;
35648;SDS011;21768;48.562;13.414;2022-10-16T07:38:40;13.85;;;7.28;;
35648;SDS011;21768;48.562;13.414;2022-10-16T07:41:07;18.33;;;8.75;;
35648;SDS011;21768;48.562;13.414;2022-10-16T07:43:35;26.50;;;9.35;;
35648;SDS011;21768;48.562;13.414;2022-10-16T07:46:01;15.48;;;8.90;;
35648;SDS011;21768;48.562;13.414;2022-10-16T07:48:28;14.63;;;7.82;;
35648;SDS011;21768;48.562;13.414;2022-10-16T07:50:59;15.70;;;8.52;;
35648;SDS011;21768;48.562;13.414;2022-10-16T07:53:25;16.58;;;8.60;;
35648;SDS011;21768;48.562;13.414;2022-10-16T07:55:51;16.13;;;9.20;;
35648;SDS011;21768;48.562;13.414;2022-10-16T07:58:16;15.45;;;8.75;;
35648;SDS011;21768;48.562;13.414;2022-10-16T08:00:42;18.02;;;9.32;;
35648;SDS011;21768;48.562;13.414;2022-10-16T08:03:08;16.30;;;8.23;;
35648;SDS011;21768;48.562;13.414;2022-10-16T08:05:33;19.60;;;8.80;;
35648;SDS011;21768;48.562;13.414;2022-10-16T08:07:59;16.95;;;9.02;;
35648;SDS011;21768;48.562;13.414;2022-10-16T08:10:27;19.02;;;9.38;;
35648;SDS011;21768;48.562;13.414;2022-10-16T08:12:53;18.15;;;8.85;;
35648;SDS011;21768;48.562;13.414;2022-10-16T08:15:19;11.85;;;7.15;;
35648;SDS011;21768;48.562;13.414;2022-10-16T08:17:53;12.77;;;7.50;;
35648;SDS011;21768;48.562;13.414;2022-10-16T08:20:19;13.35;;;7.57;;
35648;SDS011;21768;48.562;13.414;2022-10-16T08:22:45;15.70;;;7.35;;
35648;SDS011;21768;48.562;13.414;2022-10-16T08:25:10;15.20;;;7.35;;
35648;SDS011;21768;48.562;13.414;2022-10-16T08:27:35;10.98;;;6.28;;
35648;SDS011;21768;48.562;13.414;2022-10-16T08:30:01;13.43;;;6.45;;
35648;SDS011;21768;48.562;13.414;2022-10-16T08:32:26;14.07;;;6.40;;
35648;SDS011;21768;48.562;13.414;2022-10-16T08:34:52;11.77;;;6.72;;
35648;SDS011;21768;48.562;13.414;2022-10-16T08:37:17;12.07;;;6.78;;
35648;SDS011;21768;48.562;13.414;2022-10-16T08:39:43;14.77;;;6.88;;
35648;SDS011;21768;48.562;13.414;2022-10-16T08:45:02;13.02;;;5.97;;
35648;SDS011;21768;48.562;13.414;2022-10-16T08:50:22;16.90;;;7.60;;
35648;SDS011;21768;48.562;13.414;2022-10-16T08:52:50;14.55;;;7.90;;
35648;SDS011;21768;48.562;13.414;2022-10-16T08:55:30;11.93;;;6.53;;
35648;SDS011;21768;48.562;13.414;2022-10-16T08:58:00;11.85;;;7.07;;
35648;SDS011;21768;48.562;13.414;2022-10-16T09:00:35;10.57;;;6.38;;
35648;SDS011;21768;48.562;13.414;2022-10-16T09:16:28;11.30;;;6.45;;
35648;SDS011;21768;48.562;13.414;2022-10-16T09:21:52;9.35;;;5.78;;
35648;SDS011;21768;48.562;13.414;2022-10-16T09:24:23;12.25;;;5.80;;
35648;SDS011;21768;48.562;13.414;2022-10-16T09:26:50;9.57;;;6.10;;
35648;SDS011;21768;48.562;13.414;2022-10-16T09:29:17;14.15;;;6.28;;
35648;SDS011;21768;48.562;13.414;2022-10-16T09:31:46;8.77;;;5.13;;
35648;SDS011;21768;48.562;13.414;2022-10-16T09:34:17;11.80;;;5.43;;
35648;SDS011;21768;48.562;13.414;2022-10-16T09:36:53;7.80;;;4.60;;
35648;SDS011;21768;48.562;13.414;2022-10-16T09:39:19;9.23;;;4.53;;
35648;SDS011;21768;48.562;13.414;2022-10-16T09:41:44;9.98;;;4.07;;
35648;SDS011;21768;48.562;13.414;2022-10-16T09:44:18;10.65;;;4.97;;
35648;SDS011;21768;48.562;13.414;2022-10-16T09:47:04;7.47;;;4.40;;
35648;SDS011;21768;48.562;13.414;2022-10-16T09:49:36;11.38;;;4.63;;
35648;SDS011;21768;48.562;13.414;2022-10-16T09:52:03;6.88;;;3.50;;
35648;SDS011;21768;48.562;13.414;2022-10-16T09:54:52;9.63;;;3.92;;
35648;SDS011;21768;48.562;13.414;2022-10-16T09:57:18;9.45;;;4.00;;
35648;SDS011;21768;48.562;13.414;2022-10-16T09:59:54;7.93;;;3.75;;
35648;SDS011;21768;48.562;13.414;2022-10-16T10:02:29;7.50;;;4.00;;
35648;SDS011;21768;48.562;13.414;2022-10-16T10:08:25;9.38;;;3.90;;
35648;SDS011;21768;48.562;13.414;2022-10-16T10:10:50;6.45;;;4.00;;
35648;SDS011;21768;48.562;13.414;2022-10-16T10:13:20;9.63;;;4.10;;
35648;SDS011;21768;48.562;13.414;2022-10-16T10:15:47;5.80;;;3.58;;
35648;SDS011;21768;48.562;13.414;2022-10-16T10:18:19;6.57;;;3.20;;
35648;SDS011;21768;48.562;13.414;2022-10-16T10:20:58;10.83;;;3.87;;
35648;SDS011;21768;48.562;13.414;2022-10-16T10:23:26;6.55;;;3.40;;
35648;SDS011;21768;48.562;13.414;2022-10-16T10:25:55;10.13;;;5.05;;
35648;SDS011;21768;48.562;13.414;2022-10-16T10:31:20;7.45;;;3.20;;
35648;SDS011;21768;48.562;13.414;2022-10-16T10:36:39;6.72;;;2.72;;
35648;SDS011;21768;48.562;13.414;2022-10-16T10:42:08;6.85;;;3.28;;
35648;SDS011;21768;48.562;13.414;2022-10-16T10:44:55;6.10;;;3.22;;
35648;SDS011;21768;48.562;13.414;2022-10-16T10:50:07;9.52;;;3.30;;
35648;SDS011;21768;48.562;13.414;2022-10-16T11:01:13;9.65;;;3.13;;
35648;SDS011;21768;48.562;13.414;2022-10-16T11:06:46;6.45;;;2.95;;
35648;SDS011;21768;48.562;13.414;2022-10-16T11:09:36;4.75;;;3.00;;
35648;SDS011;21768;48.562;13.414;2022-10-16T11:12:10;5.45;;;3.45;;
35648;SDS011;21768;48.562;13.414;2022-10-16T11:17:19;8.00;;;2.70;;
35648;SDS011;21768;48.562;13.414;2022-10-16T11:22:48;8.02;;;3.10;;
35648;SDS011;21768;48.562;13.414;2022-10-16T11:25:20;9.18;;;2.95;;
35648;SDS011;21768;48.562;13.414;2022-10-16T11:30:38;5.15;;;3.03;;
35648;SDS011;21768;48.562;13.414;2022-10-16T11:38:20;4.18;;;2.72;;
35648;SDS011;21768;48.562;13.414;2022-10-16T11:40:51;3.53;;;2.60;;
35648;SDS011;21768;48.562;13.414;2022-10-16T11:43:37;6.43;;;2.50;;
35648;SDS011;21768;48.562;13.414;2022-10-16T11:46:12;4.88;;;2.28;;
35648;SDS011;21768;48.562;13.414;2022-10-16T11:48:47;9.10;;;3.00;;
35648;SDS011;21768;48.562;13.414;2022-10-16T11:54:23;2.92;;;2.40;;
35648;SDS011;21768;48.562;13.414;2022-10-16T11:56:55;3.20;;;2.30;;
35648;SDS011;21768;48.562;13.414;2022-10-16T11:59:29;6.85;;;2.70;;
35648;SDS011;21768;48.562;13.414;2022-10-16T12:04:46;3.65;;;2.70;;
35648;SDS011;21768;48.562;13.414;2022-10-16T12:07:19;5.28;;;2.50;;
35648;SDS011;21768;48.562;13.414;2022-10-16T12:09:49;6.65;;;3.30;;
35648;SDS011;21768;48.562;13.414;2022-10-16T12:12:27;10.15;;;2.95;;
35648;SDS011;21768;48.562;13.414;2022-10-16T12:17:35;4.72;;;2.92;;
35648;SDS011;21768;48.562;13.414;2022-10-16T12:22:37;3.53;;;2.60;;
35648;SDS011;21768;48.562;13.414;2022-10-16T12:30:33;3.55;;;2.47;;
35648;SDS011;21768;48.562;13.414;2022-10-16T12:33:21;5.50;;;2.33;;
35648;SDS011;21768;48.562;13.414;2022-10-16T12:35:50;4.65;;;2.20;;
35648;SDS011;21768;48.562;13.414;2022-10-16T12:38:20;4.63;;;1.65;;
35648;SDS011;21768;48.562;13.414;2022-10-16T12:41:07;2.92;;;1.80;;
35648;SDS011;21768;48.562;13.414;2022-10-16T12:43:39;2.60;;;1.90;;
35648;SDS011;21768;48.562;13.414;2022-10-16T12:48:35;3.57;;;1.60;;
35648;SDS011;21768;48.562;13.414;2022-10-16T12:51:12;1.67;;;1.58;;
35648;SDS011;21768;48.562;13.414;2022-10-16T12:53:46;3.03;;;1.90;;
35648;SDS011;21768;48.562;13.414;2022-10-16T12:56:24;2.70;;;1.95;;
35648;SDS011;21768;48.562;13.414;2022-10-16T12:59:09;2.58;;;2.08;;
35648;SDS011;21768;48.562;13.414;2022-10-16T13:07:53;5.93;;;1.77;;
35648;SDS011;21768;48.562;13.414;2022-10-16T13:10:51;3.53;;;1.92;;
35648;SDS011;21768;48.562;13.414;2022-10-16T13:13:44;2.10;;;1.70;;
35648;SDS011;21768;48.562;13.414;2022-10-16T13:16:39;2.55;;;1.73;;
35648;SDS011;21768;48.562;13.414;2022-10-16T13:22:08;2.97;;;2.08;;
35648;SDS011;21768;48.562;13.414;2022-10-16T13:29:52;1.77;;;1.23;;
35648;SDS011;21768;48.562;13.414;2022-10-16T13:32:20;4.72;;;1.50;;
35648;SDS011;21768;48.562;13.414;2022-10-16T13:34:47;7.40;;;1.60;;
35648;SDS011;21768;48.562;13.414;2022-10-16T13:37:20;1.83;;;1.40;;
35648;SDS011;21768;48.562;13.414;2022-10-16T13:39:48;1.60;;;1.50;;
35648;SDS011;21768;48.562;13.414;2022-10-16T13:42:26;7.47;;;1.83;;
35648;SDS011;21768;48.562;13.414;2022-10-16T13:44:53;5.30;;;2.00;;
35648;SDS011;21768;48.562;13.414;2022-10-16T13:47:27;2.45;;;1.60;;
35648;SDS011;21768;48.562;13.414;2022-10-16T13:50:00;3.20;;;1.75;;
35648;SDS011;21768;48.562;13.414;2022-10-16T13:52:31;6.30;;;2.00;;
35648;SDS011;21768;48.562;13.414;2022-10-16T13:58:19;5.90;;;1.80;;
35648;SDS011;21768;48.562;13.414;2022-10-16T14:00:58;4.13;;;1.90;;
35648;SDS011;21768;48.562;13.414;2022-10-16T14:03:26;2.47;;;1.48;;
35648;SDS011;21768;48.562;13.414;2022-10-16T14:05:54;4.18;;;1.70;;
35648;SDS011;21768;48.562;13.414;2022-10-16T14:08:22;2.55;;;1.23;;
35648;SDS011;21768;48.562;13.414;2022-10-16T14:10:50;6.13;;;1.90;;
35648;SDS011;21768;48.562;13.414;2022-10-16T14:13:20;3.67;;;1.98;;
35648;SDS011;21768;48.562;13.414;2022-10-16T14:16:09;3.03;;;1.70;;
35648;SDS011;21768;48.562;13.414;2022-10-16T14:18:41;6.07;;;1.83;;
35648;SDS011;21768;48.562;13.414;2022-10-16T14:21:12;3.95;;;1.88;;
35648;SDS011;21768;48.562;13.414;2022-10-16T14:23:41;8.77;;;1.83;;
35648;SDS011;21768;48.562;13.414;2022-10-16T14:28:38;4.20;;;1.90;;
35648;SDS011;21768;48.562;13.414;2022-10-16T14:33:51;7.38;;;1.98;;
35648;SDS011;21768;48.562;13.414;2022-10-16T14:36:16;10.05;;;2.10;;
35648;SDS011;21768;48.562;13.414;2022-10-16T14:41:41;2.95;;;1.92;;
35648;SDS011;21768;48.562;13.414;2022-10-16T14:44:10;4.28;;;1.80;;
35648;SDS011;21768;48.562;13.414;2022-10-16T14:46:37;4.55;;;2.15;;
35648;SDS011;21768;48.562;13.414;2022-10-16T14:49:16;4.82;;;2.47;;
35648;SDS011;21768;48.562;13.414;2022-10-16T14:51:45;4.35;;;2.08;;
35648;SDS011;21768;48.562;13.414;2022-10-16T14:54:14;6.60;;;1.80;;
35648;SDS011;21768;48.562;13.414;2022-10-16T14:59:12;8.25;;;2.00;;
35648;SDS011;21768;48.562;13.414;2022-10-16T15:01:58;4.10;;;2.67;;
35648;SDS011;21768;48.562;13.414;2022-10-16T15:04:25;4.75;;;2.45;;
35648;SDS011;21768;48.562;13.414;2022-10-16T15:06:51;6.40;;;2.22;;
35648;SDS011;21768;48.562;13.414;2022-10-16T15:09:16;6.07;;;1.98;;
35648;SDS011;21768;48.562;13.414;2022-10-16T15:12:10;3.95;;;2.15;;
35648;SDS011;21768;48.562;13.414;2022-10-16T15:14:35;5.75;;;2.35;;
35648;SDS011;21768;48.562;13.414;2022-10-16T15:17:01;5.35;;;2.30;;
35648;SDS011;21768;48.562;13.414;2022-10-16T15:19:27;5.55;;;2.22;;
35648;SDS011;21768;48.562;13.414;2022-10-16T15:21:52;9.00;;;2.20;;
35648;SDS011;21768;48.562;13.414;2022-10-16T15:24:18;5.82;;;2.38;;
35648;SDS011;21768;48.562;13.414;2022-10-16T15:26:44;3.33;;;2.08;;
35648;SDS011;21768;48.562;13.414;2022-10-16T15:29:14;17.90;;;2.85;;
35648;SDS011;21768;48.562;13.414;2022-10-16T15:31:40;5.97;;;2.40;;
35648;SDS011;21768;48.562;13.414;2022-10-16T15:34:08;10.07;;;2.20;;
35648;SDS011;21768;48.562;13.414;2022-10-16T15:36:35;6.63;;;2.20;;
35648;SDS011;21768;48.562;13.414;2022-10-16T15:39:04;10.60;;;2.15;;
35648;SDS011;21768;48.562;13.414;2022-10-16T15:41:36;4.30;;;2.17;;
35648;SDS011;21768;48.562;13.414;2022-10-16T15:44:02;5.10;;;2.38;;
35648;SDS011;21768;48.562;13.414;2022-10-16T15:46:28;6.63;;;3.45;;
35648;SDS011;21768;48.562;13.414;2022-10-16T15:48:56;5.00;;;3.00;;
35648;SDS011;21768;48.562;13.414;2022-10-16T15:51:23;8.18;;;2.90;;
35648;SDS011;21768;48.562;13.414;2022-10-16T15:53:49;6.15;;;2.80;;
35648;SDS011;21768;48.562;13.414;2022-10-16T15:56:16;5.22;;;2.60;;
35648;SDS011;21768;48.562;13.414;2022-10-16T15:58:42;5.63;;;2.38;;
35648;SDS011;21768;48.562;13.414;2022-10-16T16:01:08;11.57;;;3.20;;
35648;SDS011;21768;48.562;13.414;2022-10-16T16:03:35;4.78;;;2.53;;
35648;SDS011;21768;48.562;13.414;2022-10-16T16:06:09;7.00;;;2.92;;
35648;SDS011;21768;48.562;13.414;2022-10-16T16:08:36;4.60;;;2.80;;
35648;SDS011;21768;48.562;13.414;2022-10-16T16:11:09;9.43;;;2.60;;
35648;SDS011;21768;48.562;13.414;2022-10-16T16:13:36;6.10;;;2.85;;
35648;SDS011;21768;48.562;13.414;2022-10-16T16:16:10;5.85;;;3.03;;
35648;SDS011;21768;48.562;13.414;2022-10-16T16:18:37;9.30;;;3.22;;
35648;SDS011;21768;48.562;13.414;2022-10-16T16:21:03;7.47;;;3.13;;
35648;SDS011;21768;48.562;13.414;2022-10-16T16:23:29;9.18;;;3.13;;
35648;SDS011;21768;48.562;13.414;2022-10-16T16:26:05;13.32;;;3.88;;
35648;SDS011;21768;48.562;13.414;2022-10-16T16:28:32;15.93;;;3.45;;
35648;SDS011;21768;48.562;13.414;2022-10-16T16:30:58;14.80;;;3.60;;
35648;SDS011;21768;48.562;13.414;2022-10-16T16:33:24;10.55;;;3.38;;
35648;SDS011;21768;48.562;13.414;2022-10-16T16:35:49;14.60;;;4.40;;
35648;SDS011;21768;48.562;13.414;2022-10-16T16:38:15;9.50;;;3.90;;
35648;SDS011;21768;48.562;13.414;2022-10-16T16:40:40;8.88;;;5.03;;
35648;SDS011;21768;48.562;13.414;2022-10-16T16:43:05;9.95;;;5.05;;